Time;durP1;ratioP1;P1;durP2;ratioP2;P2;SDS_P1;SDS_P2;PMS_P1;PMS_P2;Temp;Humidity;BMP_temperature;BMP_pressure;BME280_temperature;BME280_humidity;BME280_pressure;Samples;Min_cycle;Max_cycle;Signal;HPM_P1;HPM_P2
2022/07/29 00:02:04;;;;;;;6.53;2.87;;;22.70;48.90;;;;;;20917581;28;20286;-73
2022/07/29 00:12:06;;;;;;;6.37;3.63;;;22.60;48.90;;;;;;20929522;28;20235;-72
2022/07/29 00:22:10;;;;;;;16.73;3.90;;;22.60;48.90;;;;;;20921168;28;20682;-73
2022/07/29 00:32:12;;;;;;;21.00;3.27;;;22.50;48.90;;;;;;20924901;28;20234;-73
2022/07/29 00:42:13;;;;;;;4.63;3.23;;;22.40;48.90;;;;;;20927062;28;20206;-72
2022/07/29 00:52:15;;;;;;;7.53;3.43;;;22.40;49.20;;;;;;20925507;28;20297;-72
2022/07/29 01:02:17;;;;;;;7.20;3.57;;;22.30;49.40;;;;;;20924968;28;20302;-72
2022/07/29 01:12:23;;;;;;;7.07;3.57;;;22.20;49.60;;;;;;20924400;28;20236;-72
2022/07/29 01:22:34;;;;;;;7.90;4.10;;;22.10;50.00;;;;;;20923093;28;20204;-73
2022/07/29 01:32:38;;;;;;;7.43;4.17;;;22.00;50.30;;;;;;20930433;28;20235;-72
2022/07/29 01:42:44;;;;;;;8.13;4.13;;;21.80;50.50;;;;;;20922668;28;20208;-73
2022/07/29 01:52:59;;;;;;;35.33;8.47;;;21.70;50.90;;;;;;20920231;28;20704;-73
2022/07/29 02:03:07;;;;;;;15.00;5.97;;;21.40;51.10;;;;;;20920204;28;20217;-74
2022/07/29 02:13:10;;;;;;;25.60;7.33;;;21.30;52.00;;;;;;20918526;28;20243;-74
2022/07/29 02:23:14;;;;;;;20.47;6.30;;;21.20;52.70;;;;;;20913917;28;20207;-73
2022/07/29 02:33:18;;;;;;;10.37;4.30;;;21.10;53.10;;;;;;20914449;28;20228;-73
2022/07/29 02:43:22;;;;;;;12.80;4.50;;;21.10;53.60;;;;;;20917175;28;20290;-73
2022/07/29 02:53:26;;;;;;;12.03;4.73;;;21.00;54.40;;;;;;20916754;28;20253;-73
2022/07/29 03:03:33;;;;;;;9.67;5.90;;;20.90;54.60;;;;;;20915715;28;20221;-73
2022/07/29 03:13:36;;;;;;;16.30;7.93;;;20.90;54.50;;;;;;20915521;28;20236;-73
2022/07/29 03:23:44;;;;;;;14.53;6.30;;;20.80;54.70;;;;;;20920193;28;20659;-74
2022/07/29 03:33:46;;;;;;;11.43;4.40;;;20.80;54.60;;;;;;20913806;28;20260;-74
2022/07/29 03:43:50;;;;;;;14.20;4.40;;;20.70;54.50;;;;;;20912804;28;20677;-75
2022/07/29 03:53:52;;;;;;;9.40;4.03;;;20.60;54.80;;;;;;20912944;28;20597;-74
2022/07/29 04:03:58;;;;;;;12.57;4.50;;;20.60;55.00;;;;;;20912370;28;20613;-74
2022/07/29 04:13:59;;;;;;;9.53;4.10;;;20.50;55.30;;;;;;20912048;28;20270;-73
2022/07/29 04:24:01;;;;;;;10.53;4.33;;;20.50;55.10;;;;;;20861749;28;20785;-73
2022/07/29 04:34:03;;;;;;;11.13;4.50;;;20.50;55.20;;;;;;20826492;28;20245;-74
2022/07/29 04:44:05;;;;;;;9.53;4.30;;;20.50;55.60;;;;;;20826979;28;20210;-74
2022/07/29 04:54:12;;;;;;;10.17;3.97;;;20.40;55.90;;;;;;20838362;28;20724;-73
2022/07/29 05:04:15;;;;;;;9.17;3.90;;;20.50;55.80;;;;;;20843254;28;20223;-73
2022/07/29 05:14:17;;;;;;;13.43;4.33;;;20.40;55.70;;;;;;20842092;28;20251;-73
2022/07/29 05:24:20;;;;;;;33.90;5.13;;;20.40;55.80;;;;;;20842330;28;20214;-74
2022/07/29 05:34:22;;;;;;;22.23;5.73;;;20.40;56.20;;;;;;20841248;28;20235;-74
2022/07/29 05:44:24;;;;;;;17.33;4.47;;;20.60;56.50;;;;;;20840358;28;20240;-73
2022/07/29 05:54:26;;;;;;;10.93;4.20;;;20.70;55.70;;;;;;20838351;28;20599;-74
2022/07/29 06:04:27;;;;;;;13.67;3.20;;;21.00;55.20;;;;;;20836918;28;20216;-73
2022/07/29 06:14:30;;;;;;;5.67;2.80;;;21.30;54.50;;;;;;20835997;28;20264;-74
2022/07/29 06:24:31;;;;;;;13.67;3.03;;;21.60;53.60;;;;;;20832813;28;20209;-72
2022/07/29 06:34:33;;;;;;;6.17;2.90;;;21.70;53.20;;;;;;20831839;28;20719;-73
2022/07/29 06:44:35;;;;;;;8.00;3.17;;;22.10;53.00;;;;;;20832852;28;20720;-72
2022/07/29 06:54:38;;;;;;;9.37;3.70;;;22.30;52.60;;;;;;20833266;28;20598;-73
2022/07/29 07:04:40;;;;;;;5.87;3.20;;;22.70;52.40;;;;;;20831422;28;20205;-74
2022/07/29 07:14:42;;;;;;;7.07;3.00;;;23.00;52.10;;;;;;20828829;28;20294;-73
2022/07/29 07:24:43;;;;;;;3.90;2.80;;;23.40;51.80;;;;;;20831587;28;20200;-73
2022/07/29 07:34:45;;;;;;;5.77;3.33;;;23.80;51.60;;;;;;20828755;28;20237;-73
2022/07/29 07:44:48;;;;;;;5.13;2.47;;;24.00;51.30;;;;;;20837653;28;20601;-75
2022/07/29 07:55:09;;;;;;;8.33;3.10;;;24.30;51.30;;;;;;20891514;28;20231;-76
2022/07/29 08:05:15;;;;;;;5.80;3.00;;;24.50;51.20;;;;;;20867912;28;20211;-74
2022/07/29 08:15:17;;;;;;;7.23;3.13;;;24.60;51.50;;;;;;20831389;28;20244;-73
2022/07/29 08:25:20;;;;;;;6.10;3.23;;;24.70;51.60;;;;;;20834465;28;20575;-72
2022/07/29 08:35:23;;;;;;;7.10;2.90;;;24.90;51.60;;;;;;20843726;28;20259;-74
2022/07/29 08:45:25;;;;;;;4.20;2.90;;;25.10;51.40;;;;;;20919138;28;20232;-74
2022/07/29 08:55:27;;;;;;;5.43;2.60;;;25.30;51.50;;;;;;20925133;28;20235;-76
2022/07/29 09:05:31;;;;;;;6.10;4.13;;;25.50;51.40;;;;;;20925863;28;20567;-72
2022/07/29 09:15:37;;;;;;;9.90;3.87;;;25.40;51.50;;;;;;20922712;28;20654;-73
2022/07/29 09:25:40;;;;;;;7.27;4.97;;;25.30;51.40;;;;;;20922894;28;20208;-72
2022/07/29 09:35:42;;;;;;;12.77;3.17;;;25.40;51.40;;;;;;20921355;28;20748;-74
2022/07/29 09:46:11;;;;;;;9.67;3.40;;;25.30;51.50;;;;;;20840686;28;20231;-74
2022/07/29 09:56:14;;;;;;;14.17;3.40;;;25.10;52.00;;;;;;20835075;28;20647;-77
2022/07/29 10:06:15;;;;;;;14.23;4.03;;;25.00;53.00;;;;;;20837946;28;20342;-69
2022/07/29 10:16:17;;;;;;;13.63;5.20;;;25.10;55.10;;;;;;20847417;28;20594;-72
2022/07/29 10:26:20;;;;;;;6.30;4.07;;;24.70;57.90;;;;;;20838477;28;20208;-72
2022/07/29 10:36:35;;;;;;;10.93;3.47;;;24.40;59.60;;;;;;20835664;28;20240;-72
2022/07/29 10:46:39;;;;;;;7.60;3.40;;;24.30;61.70;;;;;;20832234;28;20239;-72
2022/07/29 10:56:42;;;;;;;9.47;3.60;;;24.50;62.10;;;;;;20833563;28;20330;-74
2022/07/29 11:07:06;;;;;;;7.23;3.03;;;24.70;59.30;;;;;;20832470;28;20246;-71
2022/07/29 11:17:09;;;;;;;12.93;4.17;;;25.20;58.00;;;;;;20831877;28;20323;-76
2022/07/29 11:27:22;;;;;;;6.30;3.20;;;25.50;56.70;;;;;;20830950;28;20232;-75
2022/07/29 11:37:29;;;;;;;7.67;3.00;;;25.80;55.60;;;;;;20830108;28;20223;-74
2022/07/29 11:47:34;;;;;;;7.00;3.53;;;26.20;54.50;;;;;;20828944;28;20711;-77
2022/07/29 11:58:01;;;;;;;7.47;4.00;;;26.50;53.80;;;;;;20829858;28;20208;-79
2022/07/29 12:08:10;;;;;;;8.13;3.30;;;26.50;52.80;;;;;;20828687;28;20232;-73
2022/07/29 12:18:18;;;;;;;6.30;3.07;;;26.50;52.80;;;;;;20828601;28;20280;-74
2022/07/29 12:28:24;;;;;;;7.33;2.70;;;26.70;53.20;;;;;;20828374;28;20319;-73
2022/07/29 12:38:29;;;;;;;6.90;4.03;;;27.20;52.70;;;;;;20863654;28;20265;-69
2022/07/29 12:48:35;;;;;;;5.63;3.47;;;26.90;52.10;;;;;;20945328;28;20243;-68
2022/07/29 12:58:40;;;;;;;6.40;3.40;;;26.70;52.40;;;;;;20963447;28;20667;-68
2022/07/29 13:08:59;;;;;;;11.83;6.77;;;26.40;52.80;;;;;;20995701;28;20235;-69
2022/07/29 13:19:10;;;;;;;6.40;3.33;;;26.20;53.20;;;;;;20863088;28;20205;-69
2022/07/29 13:29:11;;;;;;;8.80;3.90;;;26.00;54.00;;;;;;20850601;28;20238;-69
2022/07/29 13:39:13;;;;;;;3.43;3.10;;;25.80;55.80;;;;;;20841185;28;20218;-70
2022/07/29 13:49:15;;;;;;;6.27;3.60;;;25.50;58.20;;;;;;20839392;28;20601;-66
2022/07/29 13:59:17;;;;;;;7.50;4.20;;;25.30;60.80;;;;;;20838319;28;20208;-71
2022/07/29 14:09:19;;;;;;;12.50;3.80;;;25.00;64.10;;;;;;20837825;28;20243;-70
2022/07/29 14:19:21;;;;;;;7.53;4.20;;;24.60;68.50;;;;;;20850258;28;20205;-72
2022/07/29 14:29:24;;;;;;;9.73;4.57;;;24.40;72.80;;;;;;20918838;28;20232;-70
2022/07/29 14:39:38;;;;;;;8.47;5.47;;;24.20;77.10;;;;;;20917984;28;20261;-68
2022/07/29 14:49:43;;;;;;;6.77;5.23;;;24.00;80.50;;;;;;20916697;28;20236;-71
2022/07/29 14:59:45;;;;;;;7.40;5.53;;;23.90;83.50;;;;;;20915991;28;20279;-70
2022/07/29 15:09:47;;;;;;;8.47;4.73;;;23.70;86.00;;;;;;20915862;28;20227;-72
2022/07/29 15:19:50;;;;;;;5.60;3.47;;;23.50;88.70;;;;;;20847848;28;20243;-69
2022/07/29 15:29:54;;;;;;;4.53;3.33;;;23.30;88.10;;;;;;20847483;28;20273;-68
2022/07/29 15:39:55;;;;;;;5.27;3.83;;;23.30;87.20;;;;;;20908958;28;20212;-69
2022/07/29 15:50:00;;;;;;;7.30;3.73;;;23.10;88.70;;;;;;20913169;28;20707;-71
2022/07/29 16:00:04;;;;;;;5.77;4.20;;;22.90;89.40;;;;;;20913256;28;20278;-71
2022/07/29 16:10:09;;;;;;;5.17;4.00;;;22.80;87.80;;;;;;20912730;28;20275;-68
2022/07/29 16:20:11;;;;;;;6.63;3.70;;;22.70;87.20;;;;;;20917470;28;20212;-71
2022/07/29 16:30:14;;;;;;;6.13;3.73;;;22.70;86.20;;;;;;20920289;28;20273;-73
2022/07/29 16:40:16;;;;;;;6.50;4.30;;;22.60;86.60;;;;;;20911697;28;20602;-67
2022/07/29 16:50:18;;;;;;;6.63;4.40;;;22.50;88.50;;;;;;20921220;28;20243;-72
2022/07/29 17:00:20;;;;;;;6.77;3.73;;;22.30;90.00;;;;;;20926301;28;20391;-74
2022/07/29 17:10:23;;;;;;;7.07;3.77;;;22.30;90.60;;;;;;20925124;28;20235;-73
2022/07/29 17:20:28;;;;;;;4.13;3.47;;;22.20;91.40;;;;;;20926100;28;20217;-72
2022/07/29 17:30:30;;;;;;;10.00;4.50;;;22.20;91.70;;;;;;20922596;28;20239;-74
2022/07/29 17:40:32;;;;;;;7.60;4.60;;;22.10;92.10;;;;;;20880848;28;20251;-72
2022/07/29 17:50:33;;;;;;;6.73;3.80;;;22.10;92.40;;;;;;20901486;28;20241;-72
2022/07/29 18:00:36;;;;;;;6.07;3.80;;;22.10;92.30;;;;;;20886791;28;20215;-72
2022/07/29 18:10:38;;;;;;;5.50;3.90;;;22.00;92.80;;;;;;20901634;28;20323;-73
2022/07/29 18:20:41;;;;;;;18.27;3.80;;;22.00;92.90;;;;;;20896300;28;20208;-71
2022/07/29 18:30:44;;;;;;;4.50;3.90;;;21.90;93.00;;;;;;20917350;28;20221;-75
2022/07/29 18:40:47;;;;;;;6.00;4.53;;;21.80;93.20;;;;;;20862756;28;20304;-71
2022/07/29 18:50:49;;;;;;;7.40;4.17;;;21.70;93.70;;;;;;20836391;28;20244;-73
2022/07/29 19:00:51;;;;;;;5.83;4.90;;;21.60;94.20;;;;;;20834731;28;20201;-71
2022/07/29 19:10:52;;;;;;;9.33;4.93;;;21.50;95.00;;;;;;20830215;28;20232;-72
2022/07/29 19:20:54;;;;;;;6.33;4.87;;;21.30;95.90;;;;;;20831008;28;20686;-71
2022/07/29 19:30:56;;;;;;;7.87;4.60;;;21.20;96.30;;;;;;20828828;28;20237;-71
2022/07/29 19:40:58;;;;;;;7.10;5.13;;;21.10;96.50;;;;;;20823616;28;20270;-70
2022/07/29 19:51:00;;;;;;;6.60;5.00;;;21.00;96.90;;;;;;20828805;28;20247;-70
2022/07/29 20:01:02;;;;;;;8.60;6.00;;;20.90;97.30;;;;;;20828340;28;20218;-72
2022/07/29 20:11:11;;;;;;;6.77;5.37;;;20.80;97.90;;;;;;20828491;28;20246;-73
2022/07/29 20:21:13;;;;;;;6.53;5.47;;;20.70;98.40;;;;;;20833071;28;20216;-73
2022/07/29 20:31:15;;;;;;;7.50;6.27;;;20.50;98.80;;;;;;20842752;28;20246;-72
2022/07/29 20:41:17;;;;;;;10.47;7.03;;;20.50;99.30;;;;;;20842144;28;20207;-73
2022/07/29 20:51:19;;;;;;;6.77;6.03;;;20.70;99.50;;;;;;20841541;28;20244;-70
2022/07/29 21:01:21;;;;;;;6.97;5.90;;;20.60;99.60;;;;;;20840623;28;20212;-69
2022/07/29 21:11:23;;;;;;;6.60;5.77;;;20.60;99.90;;;;;;20840580;28;20239;-71
2022/07/29 21:21:45;;;;;;;7.10;5.37;;;20.60;99.90;;;;;;20841987;28;20718;-69
2022/07/29 21:31:47;;;;;;;6.07;5.47;;;20.70;99.90;;;;;;20848581;28;20740;-71
2022/07/29 21:41:49;;;;;;;6.60;5.93;;;20.70;99.90;;;;;;20919483;28;20210;-71
2022/07/29 21:51:50;;;;;;;7.40;6.10;;;20.60;99.90;;;;;;20921982;28;20269;-71
2022/07/29 22:01:53;;;;;;;6.37;5.57;;;20.40;99.90;;;;;;20921164;28;20724;-69
2022/07/29 22:11:55;;;;;;;7.90;6.00;;;20.30;99.90;;;;;;20920406;28;20238;-70
2022/07/29 22:21:56;;;;;;;8.10;5.80;;;20.30;99.90;;;;;;20919986;28;20570;-69
2022/07/29 22:31:58;;;;;;;7.47;6.47;;;20.30;99.90;;;;;;20917443;28;20328;-70
2022/07/29 22:42:00;;;;;;;11.07;7.73;;;20.10;99.90;;;;;;20917912;28;20217;-70
2022/07/29 22:52:02;;;;;;;8.43;6.60;;;20.00;99.90;;;;;;20930671;28;20238;-70
2022/07/29 23:02:04;;;;;;;8.53;7.23;;;19.90;99.90;;;;;;20947714;28;20677;-70
2022/07/29 23:12:06;;;;;;;8.37;6.70;;;19.90;99.90;;;;;;20924014;28;20246;-71
2022/07/29 23:22:08;;;;;;;9.80;6.90;;;19.90;99.90;;;;;;20915386;28;20298;-70
2022/07/29 23:32:09;;;;;;;12.57;7.77;;;19.80;99.90;;;;;;20902955;28;20282;-70
2022/07/29 23:42:11;;;;;;;8.90;7.07;;;19.70;99.90;;;;;;20828433;28;20207;-71
2022/07/29 23:52:13;;;;;;;7.43;6.50;;;19.50;99.90;;;;;;20830357;28;20655;-71
